sensor_id;sensor_type;location;lat;lon;timestamp;P1;durP1;ratioP1;P2;durP2;ratioP2
51664;SDS011;37751;52.408;12.536;2023-07-16T00:00:27;10.77;;;5.75;;
51664;SDS011;37751;52.408;12.536;2023-07-16T00:02:55;8.40;;;6.38;;
51664;SDS011;37751;52.408;12.536;2023-07-16T00:05:23;6.68;;;5.57;;
51664;SDS011;37751;52.408;12.536;2023-07-16T00:07:51;12.90;;;5.70;;
51664;SDS011;37751;52.408;12.536;2023-07-16T00:10:19;8.18;;;5.10;;
51664;SDS011;37751;52.408;12.536;2023-07-16T00:12:47;7.47;;;5.07;;
51664;SDS011;37751;52.408;12.536;2023-07-16T00:15:15;7.80;;;4.82;;
51664;SDS011;37751;52.408;12.536;2023-07-16T00:17:42;6.22;;;4.93;;
51664;SDS011;37751;52.408;12.536;2023-07-16T00:20:10;6.60;;;5.07;;
51664;SDS011;37751;52.408;12.536;2023-07-16T00:22:39;7.65;;;4.93;;
51664;SDS011;37751;52.408;12.536;2023-07-16T00:25:07;6.80;;;5.30;;
51664;SDS011;37751;52.408;12.536;2023-07-16T00:27:35;10.95;;;5.47;;
51664;SDS011;37751;52.408;12.536;2023-07-16T00:30:03;6.20;;;5.10;;
51664;SDS011;37751;52.408;12.536;2023-07-16T00:32:31;7.00;;;4.63;;
51664;SDS011;37751;52.408;12.536;2023-07-16T00:35:00;5.65;;;4.65;;
51664;SDS011;37751;52.408;12.536;2023-07-16T00:37:29;3.47;;;3.17;;
51664;SDS011;37751;52.408;12.536;2023-07-16T00:39:57;3.90;;;3.53;;
51664;SDS011;37751;52.408;12.536;2023-07-16T00:42:24;4.07;;;3.40;;
51664;SDS011;37751;52.408;12.536;2023-07-16T00:44:52;5.20;;;3.40;;
51664;SDS011;37751;52.408;12.536;2023-07-16T00:47:21;4.82;;;3.33;;
51664;SDS011;37751;52.408;12.536;2023-07-16T00:49:50;4.60;;;3.28;;
51664;SDS011;37751;52.408;12.536;2023-07-16T00:52:19;3.70;;;2.92;;
51664;SDS011;37751;52.408;12.536;2023-07-16T00:54:49;5.97;;;2.67;;
51664;SDS011;37751;52.408;12.536;2023-07-16T00:57:17;4.43;;;3.40;;
51664;SDS011;37751;52.408;12.536;2023-07-16T00:59:46;5.53;;;2.95;;
51664;SDS011;37751;52.408;12.536;2023-07-16T01:02:13;4.70;;;2.50;;
51664;SDS011;37751;52.408;12.536;2023-07-16T01:04:41;4.65;;;2.60;;
51664;SDS011;37751;52.408;12.536;2023-07-16T01:07:11;5.80;;;2.80;;
51664;SDS011;37751;52.408;12.536;2023-07-16T01:09:41;4.05;;;2.70;;
51664;SDS011;37751;52.408;12.536;2023-07-16T01:12:11;6.05;;;2.80;;
51664;SDS011;37751;52.408;12.536;2023-07-16T01:14:40;3.47;;;2.78;;
51664;SDS011;37751;52.408;12.536;2023-07-16T01:17:09;7.22;;;2.80;;
51664;SDS011;37751;52.408;12.536;2023-07-16T01:19:36;6.82;;;3.35;;
51664;SDS011;37751;52.408;12.536;2023-07-16T01:22:18;4.18;;;2.88;;
51664;SDS011;37751;52.408;12.536;2023-07-16T01:30:50;4.22;;;3.58;;
51664;SDS011;37751;52.408;12.536;2023-07-16T01:33:21;7.43;;;3.40;;
51664;SDS011;37751;52.408;12.536;2023-07-16T01:35:49;5.55;;;2.80;;
51664;SDS011;37751;52.408;12.536;2023-07-16T01:38:18;7.20;;;2.60;;
51664;SDS011;37751;52.408;12.536;2023-07-16T01:40:48;4.13;;;2.63;;
51664;SDS011;37751;52.408;12.536;2023-07-16T01:43:16;4.25;;;2.63;;
51664;SDS011;37751;52.408;12.536;2023-07-16T01:45:43;5.88;;;2.70;;
51664;SDS011;37751;52.408;12.536;2023-07-16T01:48:28;9.70;;;4.47;;
51664;SDS011;37751;52.408;12.536;2023-07-16T01:50:58;9.38;;;3.45;;
51664;SDS011;37751;52.408;12.536;2023-07-16T01:53:26;9.00;;;3.70;;
51664;SDS011;37751;52.408;12.536;2023-07-16T01:55:54;8.88;;;3.42;;
51664;SDS011;37751;52.408;12.536;2023-07-16T01:58:22;5.85;;;3.05;;
51664;SDS011;37751;52.408;12.536;2023-07-16T02:00:50;6.40;;;2.75;;
51664;SDS011;37751;52.408;12.536;2023-07-16T02:03:18;8.18;;;2.90;;
51664;SDS011;37751;52.408;12.536;2023-07-16T02:05:46;6.70;;;3.40;;
51664;SDS011;37751;52.408;12.536;2023-07-16T02:08:16;4.85;;;3.72;;
51664;SDS011;37751;52.408;12.536;2023-07-16T02:10:44;5.82;;;2.95;;
51664;SDS011;37751;52.408;12.536;2023-07-16T02:13:15;5.95;;;3.65;;
51664;SDS011;37751;52.408;12.536;2023-07-16T02:15:43;4.07;;;3.05;;
51664;SDS011;37751;52.408;12.536;2023-07-16T02:18:11;8.55;;;3.40;;
51664;SDS011;37751;52.408;12.536;2023-07-16T02:20:38;6.38;;;3.92;;
51664;SDS011;37751;52.408;12.536;2023-07-16T02:23:06;7.07;;;3.88;;
51664;SDS011;37751;52.408;12.536;2023-07-16T02:25:34;5.35;;;3.63;;
51664;SDS011;37751;52.408;12.536;2023-07-16T02:28:02;10.88;;;4.13;;
51664;SDS011;37751;52.408;12.536;2023-07-16T02:30:30;5.22;;;3.40;;
51664;SDS011;37751;52.408;12.536;2023-07-16T02:32:58;5.38;;;3.58;;
51664;SDS011;37751;52.408;12.536;2023-07-16T02:35:27;7.30;;;3.85;;
51664;SDS011;37751;52.408;12.536;2023-07-16T02:37:55;6.55;;;4.10;;
51664;SDS011;37751;52.408;12.536;2023-07-16T02:40:26;6.18;;;3.92;;
51664;SDS011;37751;52.408;12.536;2023-07-16T02:42:54;5.07;;;3.75;;
51664;SDS011;37751;52.408;12.536;2023-07-16T02:45:21;4.22;;;3.80;;
51664;SDS011;37751;52.408;12.536;2023-07-16T02:47:49;7.28;;;4.60;;
51664;SDS011;37751;52.408;12.536;2023-07-16T02:50:17;20.83;;;4.18;;
51664;SDS011;37751;52.408;12.536;2023-07-16T02:52:45;5.28;;;4.00;;
51664;SDS011;37751;52.408;12.536;2023-07-16T02:55:13;7.75;;;4.45;;
51664;SDS011;37751;52.408;12.536;2023-07-16T02:57:40;6.82;;;4.43;;
51664;SDS011;37751;52.408;12.536;2023-07-16T03:00:08;9.02;;;5.00;;
51664;SDS011;37751;52.408;12.536;2023-07-16T03:02:37;6.38;;;4.47;;
51664;SDS011;37751;52.408;12.536;2023-07-16T03:05:05;5.70;;;4.72;;
51664;SDS011;37751;52.408;12.536;2023-07-16T03:07:34;7.50;;;4.47;;
51664;SDS011;37751;52.408;12.536;2023-07-16T03:10:02;11.18;;;5.15;;
51664;SDS011;37751;52.408;12.536;2023-07-16T03:12:30;7.57;;;5.03;;
51664;SDS011;37751;52.408;12.536;2023-07-16T03:14:58;9.02;;;4.72;;
51664;SDS011;37751;52.408;12.536;2023-07-16T03:17:25;5.20;;;4.65;;
51664;SDS011;37751;52.408;12.536;2023-07-16T03:19:53;5.57;;;4.88;;
51664;SDS011;37751;52.408;12.536;2023-07-16T03:22:21;6.03;;;4.65;;
51664;SDS011;37751;52.408;12.536;2023-07-16T03:24:49;5.78;;;4.43;;
51664;SDS011;37751;52.408;12.536;2023-07-16T03:27:17;6.43;;;4.18;;
51664;SDS011;37751;52.408;12.536;2023-07-16T03:29:53;10.77;;;5.47;;
51664;SDS011;37751;52.408;12.536;2023-07-16T03:32:21;10.48;;;3.90;;
51664;SDS011;37751;52.408;12.536;2023-07-16T03:34:55;6.00;;;3.90;;
51664;SDS011;37751;52.408;12.536;2023-07-16T03:37:25;7.57;;;4.28;;
51664;SDS011;37751;52.408;12.536;2023-07-16T03:39:52;5.10;;;3.70;;
51664;SDS011;37751;52.408;12.536;2023-07-16T03:42:20;8.18;;;4.10;;
51664;SDS011;37751;52.408;12.536;2023-07-16T03:44:50;5.28;;;4.55;;
51664;SDS011;37751;52.408;12.536;2023-07-16T03:47:18;6.85;;;3.92;;
51664;SDS011;37751;52.408;12.536;2023-07-16T03:49:46;5.50;;;3.90;;
51664;SDS011;37751;52.408;12.536;2023-07-16T03:52:14;5.55;;;3.80;;
51664;SDS011;37751;52.408;12.536;2023-07-16T03:54:42;4.90;;;3.88;;
51664;SDS011;37751;52.408;12.536;2023-07-16T03:57:09;8.15;;;3.75;;
51664;SDS011;37751;52.408;12.536;2023-07-16T03:59:37;4.78;;;3.70;;
51664;SDS011;37751;52.408;12.536;2023-07-16T04:02:05;4.57;;;3.88;;
51664;SDS011;37751;52.408;12.536;2023-07-16T04:04:35;7.68;;;3.55;;
51664;SDS011;37751;52.408;12.536;2023-07-16T04:07:03;8.68;;;4.13;;
51664;SDS011;37751;52.408;12.536;2023-07-16T04:09:31;5.88;;;3.75;;
51664;SDS011;37751;52.408;12.536;2023-07-16T04:11:59;4.65;;;3.90;;
51664;SDS011;37751;52.408;12.536;2023-07-16T04:14:26;4.70;;;3.58;;
51664;SDS011;37751;52.408;12.536;2023-07-16T04:16:54;5.75;;;3.95;;
51664;SDS011;37751;52.408;12.536;2023-07-16T04:19:22;8.18;;;4.03;;
51664;SDS011;37751;52.408;12.536;2023-07-16T04:21:50;6.82;;;4.20;;
51664;SDS011;37751;52.408;12.536;2023-07-16T04:24:18;5.07;;;3.72;;
51664;SDS011;37751;52.408;12.536;2023-07-16T04:26:45;6.07;;;4.15;;
51664;SDS011;37751;52.408;12.536;2023-07-16T04:29:13;4.43;;;3.92;;
51664;SDS011;37751;52.408;12.536;2023-07-16T04:31:41;4.53;;;3.53;;
51664;SDS011;37751;52.408;12.536;2023-07-16T04:34:09;4.18;;;3.35;;
51664;SDS011;37751;52.408;12.536;2023-07-16T04:36:38;5.45;;;4.10;;
51664;SDS011;37751;52.408;12.536;2023-07-16T04:39:06;6.03;;;4.38;;
51664;SDS011;37751;52.408;12.536;2023-07-16T04:41:34;5.18;;;3.95;;
51664;SDS011;37751;52.408;12.536;2023-07-16T04:44:01;6.88;;;3.88;;
51664;SDS011;37751;52.408;12.536;2023-07-16T04:46:29;4.30;;;3.30;;
51664;SDS011;37751;52.408;12.536;2023-07-16T04:48:57;4.95;;;3.55;;
51664;SDS011;37751;52.408;12.536;2023-07-16T04:51:25;6.25;;;4.20;;
51664;SDS011;37751;52.408;12.536;2023-07-16T04:53:53;7.07;;;4.05;;
51664;SDS011;37751;52.408;12.536;2023-07-16T04:56:21;6.72;;;3.92;;
51664;SDS011;37751;52.408;12.536;2023-07-16T04:58:49;5.28;;;4.60;;
51664;SDS011;37751;52.408;12.536;2023-07-16T05:01:16;5.20;;;3.97;;
51664;SDS011;37751;52.408;12.536;2023-07-16T05:03:44;5.00;;;3.72;;
51664;SDS011;37751;52.408;12.536;2023-07-16T05:06:12;4.00;;;3.55;;
51664;SDS011;37751;52.408;12.536;2023-07-16T05:08:41;4.22;;;3.22;;
51664;SDS011;37751;52.408;12.536;2023-07-16T05:11:08;5.72;;;3.13;;
51664;SDS011;37751;52.408;12.536;2023-07-16T05:13:36;4.28;;;2.83;;
51664;SDS011;37751;52.408;12.536;2023-07-16T05:16:04;4.63;;;3.25;;
51664;SDS011;37751;52.408;12.536;2023-07-16T05:18:32;3.67;;;3.38;;
51664;SDS011;37751;52.408;12.536;2023-07-16T05:21:00;6.80;;;3.80;;
51664;SDS011;37751;52.408;12.536;2023-07-16T05:23:27;5.50;;;3.13;;
51664;SDS011;37751;52.408;12.536;2023-07-16T05:25:55;4.97;;;3.30;;
51664;SDS011;37751;52.408;12.536;2023-07-16T05:28:24;6.03;;;3.45;;
51664;SDS011;37751;52.408;12.536;2023-07-16T05:31:03;3.25;;;2.50;;
51664;SDS011;37751;52.408;12.536;2023-07-16T05:33:31;4.38;;;2.90;;
51664;SDS011;37751;52.408;12.536;2023-07-16T05:35:59;5.63;;;3.10;;
51664;SDS011;37751;52.408;12.536;2023-07-16T05:38:27;3.47;;;2.72;;
51664;SDS011;37751;52.408;12.536;2023-07-16T05:40:59;4.68;;;2.83;;
51664;SDS011;37751;52.408;12.536;2023-07-16T05:43:30;4.32;;;3.10;;
51664;SDS011;37751;52.408;12.536;2023-07-16T05:45:59;2.88;;;2.63;;
51664;SDS011;37751;52.408;12.536;2023-07-16T05:48:27;3.85;;;2.92;;
51664;SDS011;37751;52.408;12.536;2023-07-16T05:50:54;3.63;;;2.60;;
51664;SDS011;37751;52.408;12.536;2023-07-16T05:53:22;2.83;;;2.53;;
51664;SDS011;37751;52.408;12.536;2023-07-16T05:55:50;4.13;;;2.42;;
51664;SDS011;37751;52.408;12.536;2023-07-16T05:58:19;5.10;;;2.80;;
51664;SDS011;37751;52.408;12.536;2023-07-16T06:00:47;6.55;;;2.40;;
51664;SDS011;37751;52.408;12.536;2023-07-16T06:03:15;3.25;;;2.05;;
51664;SDS011;37751;52.408;12.536;2023-07-16T06:05:44;5.38;;;2.80;;
51664;SDS011;37751;52.408;12.536;2023-07-16T06:08:12;4.22;;;2.45;;
51664;SDS011;37751;52.408;12.536;2023-07-16T06:10:39;5.10;;;2.50;;
51664;SDS011;37751;52.408;12.536;2023-07-16T06:13:07;4.00;;;2.58;;
51664;SDS011;37751;52.408;12.536;2023-07-16T06:15:36;4.28;;;2.40;;
51664;SDS011;37751;52.408;12.536;2023-07-16T06:18:04;6.78;;;2.88;;
51664;SDS011;37751;52.408;12.536;2023-07-16T06:20:32;3.47;;;3.08;;
51664;SDS011;37751;52.408;12.536;2023-07-16T06:23:00;6.13;;;3.00;;
51664;SDS011;37751;52.408;12.536;2023-07-16T06:25:28;6.43;;;3.05;;
51664;SDS011;37751;52.408;12.536;2023-07-16T06:27:56;4.93;;;2.67;;
51664;SDS011;37751;52.408;12.536;2023-07-16T06:30:24;5.43;;;2.70;;
51664;SDS011;37751;52.408;12.536;2023-07-16T06:32:52;6.22;;;2.22;;
51664;SDS011;37751;52.408;12.536;2023-07-16T06:35:20;2.47;;;1.95;;
51664;SDS011;37751;52.408;12.536;2023-07-16T06:37:47;4.38;;;2.47;;
51664;SDS011;37751;52.408;12.536;2023-07-16T06:40:18;3.30;;;1.90;;
51664;SDS011;37751;52.408;12.536;2023-07-16T06:42:46;6.00;;;2.58;;
51664;SDS011;37751;52.408;12.536;2023-07-16T06:45:14;5.70;;;2.30;;
51664;SDS011;37751;52.408;12.536;2023-07-16T06:47:42;3.05;;;2.47;;
51664;SDS011;37751;52.408;12.536;2023-07-16T06:50:09;6.88;;;2.83;;
51664;SDS011;37751;52.408;12.536;2023-07-16T06:52:37;5.15;;;2.58;;
51664;SDS011;37751;52.408;12.536;2023-07-16T06:55:05;3.47;;;2.63;;
51664;SDS011;37751;52.408;12.536;2023-07-16T06:57:33;5.60;;;2.80;;
51664;SDS011;37751;52.408;12.536;2023-07-16T07:00:01;4.10;;;2.42;;
51664;SDS011;37751;52.408;12.536;2023-07-16T07:02:30;7.75;;;2.88;;
51664;SDS011;37751;52.408;12.536;2023-07-16T07:04:58;2.30;;;2.03;;
51664;SDS011;37751;52.408;12.536;2023-07-16T07:07:26;4.70;;;2.10;;
51664;SDS011;37751;52.408;12.536;2023-07-16T07:09:54;4.38;;;2.10;;
51664;SDS011;37751;52.408;12.536;2023-07-16T07:12:22;5.75;;;2.35;;
51664;SDS011;37751;52.408;12.536;2023-07-16T07:14:50;5.40;;;2.33;;
51664;SDS011;37751;52.408;12.536;2023-07-16T07:17:17;4.28;;;2.30;;
51664;SDS011;37751;52.408;12.536;2023-07-16T07:19:45;3.28;;;2.20;;
51664;SDS011;37751;52.408;12.536;2023-07-16T07:22:13;5.95;;;2.50;;
51664;SDS011;37751;52.408;12.536;2023-07-16T07:24:41;3.38;;;2.40;;
51664;SDS011;37751;52.408;12.536;2023-07-16T07:27:08;4.20;;;2.38;;
51664;SDS011;37751;52.408;12.536;2023-07-16T07:29:37;2.63;;;2.00;;
51664;SDS011;37751;52.408;12.536;2023-07-16T07:32:04;4.40;;;2.10;;
51664;SDS011;37751;52.408;12.536;2023-07-16T07:34:33;7.90;;;2.28;;
51664;SDS011;37751;52.408;12.536;2023-07-16T07:37:01;5.97;;;2.35;;
51664;SDS011;37751;52.408;12.536;2023-07-16T07:39:29;4.63;;;1.77;;
51664;SDS011;37751;52.408;12.536;2023-07-16T07:41:57;5.38;;;2.45;;
51664;SDS011;37751;52.408;12.536;2023-07-16T07:44:25;2.95;;;2.00;;
51664;SDS011;37751;52.408;12.536;2023-07-16T07:46:55;4.07;;;2.17;;
51664;SDS011;37751;52.408;12.536;2023-07-16T07:49:23;6.40;;;2.20;;
51664;SDS011;37751;52.408;12.536;2023-07-16T07:51:51;5.25;;;1.70;;
51664;SDS011;37751;52.408;12.536;2023-07-16T07:54:21;5.47;;;1.88;;
51664;SDS011;37751;52.408;12.536;2023-07-16T07:56:49;3.20;;;1.80;;
51664;SDS011;37751;52.408;12.536;2023-07-16T07:59:17;4.93;;;1.88;;
51664;SDS011;37751;52.408;12.536;2023-07-16T08:01:44;6.72;;;1.85;;
51664;SDS011;37751;52.408;12.536;2023-07-16T08:04:15;3.47;;;1.98;;
51664;SDS011;37751;52.408;12.536;2023-07-16T08:06:44;4.78;;;2.03;;
51664;SDS011;37751;52.408;12.536;2023-07-16T08:09:12;2.83;;;1.75;;
51664;SDS011;37751;52.408;12.536;2023-07-16T08:11:40;4.80;;;1.65;;
51664;SDS011;37751;52.408;12.536;2023-07-16T08:14:08;2.72;;;1.50;;
51664;SDS011;37751;52.408;12.536;2023-07-16T08:16:40;4.55;;;1.95;;
51664;SDS011;37751;52.408;12.536;2023-07-16T08:19:09;4.13;;;1.52;;
51664;SDS011;37751;52.408;12.536;2023-07-16T08:21:37;2.00;;;1.60;;
51664;SDS011;37751;52.408;12.536;2023-07-16T08:24:05;3.85;;;1.80;;
51664;SDS011;37751;52.408;12.536;2023-07-16T08:26:34;3.35;;;1.75;;
51664;SDS011;37751;52.408;12.536;2023-07-16T08:29:04;4.80;;;2.03;;
51664;SDS011;37751;52.408;12.536;2023-07-16T08:31:32;4.35;;;1.88;;
51664;SDS011;37751;52.408;12.536;2023-07-16T08:34:02;4.45;;;1.80;;
51664;SDS011;37751;52.408;12.536;2023-07-16T08:36:32;4.07;;;2.20;;
51664;SDS011;37751;52.408;12.536;2023-07-16T08:39:01;7.85;;;1.77;;
51664;SDS011;37751;52.408;12.536;2023-07-16T08:41:28;2.80;;;1.38;;
51664;SDS011;37751;52.408;12.536;2023-07-16T08:43:59;3.17;;;1.70;;
51664;SDS011;37751;52.408;12.536;2023-07-16T08:46:27;4.47;;;1.98;;
51664;SDS011;37751;52.408;12.536;2023-07-16T08:48:55;5.25;;;1.55;;
51664;SDS011;37751;52.408;12.536;2023-07-16T08:51:27;8.30;;;2.40;;
51664;SDS011;37751;52.408;12.536;2023-07-16T08:53:56;7.93;;;2.22;;
51664;SDS011;37751;52.408;12.536;2023-07-16T08:56:24;4.18;;;1.52;;
51664;SDS011;37751;52.408;12.536;2023-07-16T08:58:54;6.35;;;1.88;;
51664;SDS011;37751;52.408;12.536;2023-07-16T09:01:24;4.68;;;1.98;;
51664;SDS011;37751;52.408;12.536;2023-07-16T09:03:52;3.15;;;1.63;;
51664;SDS011;37751;52.408;12.536;2023-07-16T09:06:21;6.03;;;2.00;;
51664;SDS011;37751;52.408;12.536;2023-07-16T09:08:49;9.00;;;1.67;;
51664;SDS011;37751;52.408;12.536;2023-07-16T09:11:18;4.80;;;1.85;;
51664;SDS011;37751;52.408;12.536;2023-07-16T09:13:49;5.20;;;1.77;;
51664;SDS011;37751;52.408;12.536;2023-07-16T09:16:17;5.60;;;1.80;;
51664;SDS011;37751;52.408;12.536;2023-07-16T09:18:48;5.10;;;1.83;;
51664;SDS011;37751;52.408;12.536;2023-07-16T09:21:18;2.50;;;1.40;;
51664;SDS011;37751;52.408;12.536;2023-07-16T09:23:46;2.47;;;1.45;;
51664;SDS011;37751;52.408;12.536;2023-07-16T09:26:14;8.02;;;1.73;;
51664;SDS011;37751;52.408;12.536;2023-07-16T09:28:48;3.53;;;1.60;;
51664;SDS011;37751;52.408;12.536;2023-07-16T09:31:16;2.90;;;1.52;;
51664;SDS011;37751;52.408;12.536;2023-07-16T09:33:46;2.78;;;1.63;;
51664;SDS011;37751;52.408;12.536;2023-07-16T09:36:21;6.65;;;1.80;;
51664;SDS011;37751;52.408;12.536;2023-07-16T09:38:53;4.78;;;1.60;;
51664;SDS011;37751;52.408;12.536;2023-07-16T09:41:21;4.25;;;1.95;;
51664;SDS011;37751;52.408;12.536;2023-07-16T09:43:49;7.20;;;1.65;;
51664;SDS011;37751;52.408;12.536;2023-07-16T09:46:26;2.25;;;1.38;;
51664;SDS011;37751;52.408;12.536;2023-07-16T09:48:55;1.77;;;1.23;;
51664;SDS011;37751;52.408;12.536;2023-07-16T09:51:23;3.33;;;1.60;;
51664;SDS011;37751;52.408;12.536;2023-07-16T09:53:52;3.53;;;1.70;;
51664;SDS011;37751;52.408;12.536;2023-07-16T09:56:22;3.50;;;1.88;;
51664;SDS011;37751;52.408;12.536;2023-07-16T09:59:20;7.55;;;2.13;;
51664;SDS011;37751;52.408;12.536;2023-07-16T10:01:54;3.53;;;1.75;;
51664;SDS011;37751;52.408;12.536;2023-07-16T10:04:37;4.07;;;1.70;;
51664;SDS011;37751;52.408;12.536;2023-07-16T10:07:20;5.60;;;2.13;;
51664;SDS011;37751;52.408;12.536;2023-07-16T10:09:54;4.10;;;2.00;;
51664;SDS011;37751;52.408;12.536;2023-07-16T10:12:25;3.42;;;1.70;;
51664;SDS011;37751;52.408;12.536;2023-07-16T10:15:01;5.88;;;1.98;;
51664;SDS011;37751;52.408;12.536;2023-07-16T10:17:33;6.38;;;1.92;;
51664;SDS011;37751;52.408;12.536;2023-07-16T10:20:08;8.35;;;1.75;;
51664;SDS011;37751;52.408;12.536;2023-07-16T10:22:41;6.30;;;1.60;;
51664;SDS011;37751;52.408;12.536;2023-07-16T10:27:50;3.00;;;1.70;;
51664;SDS011;37751;52.408;12.536;2023-07-16T10:30:22;4.70;;;1.67;;
51664;SDS011;37751;52.408;12.536;2023-07-16T10:32:54;4.85;;;1.63;;
51664;SDS011;37751;52.408;12.536;2023-07-16T10:35:22;4.35;;;1.60;;
51664;SDS011;37751;52.408;12.536;2023-07-16T10:37:50;5.88;;;1.92;;
51664;SDS011;37751;52.408;12.536;2023-07-16T10:40:18;4.47;;;2.05;;
51664;SDS011;37751;52.408;12.536;2023-07-16T10:42:49;3.13;;;1.50;;
51664;SDS011;37751;52.408;12.536;2023-07-16T10:45:21;2.72;;;1.48;;
51664;SDS011;37751;52.408;12.536;2023-07-16T10:47:59;5.85;;;1.70;;
51664;SDS011;37751;52.408;12.536;2023-07-16T10:50:27;7.90;;;1.40;;
51664;SDS011;37751;52.408;12.536;2023-07-16T10:52:55;6.13;;;1.65;;
51664;SDS011;37751;52.408;12.536;2023-07-16T10:55:25;7.78;;;2.38;;
51664;SDS011;37751;52.408;12.536;2023-07-16T10:57:55;9.10;;;2.10;;
51664;SDS011;37751;52.408;12.536;2023-07-16T11:00:23;2.25;;;1.52;;
51664;SDS011;37751;52.408;12.536;2023-07-16T11:02:54;3.67;;;1.42;;
51664;SDS011;37751;52.408;12.536;2023-07-16T11:05:25;9.77;;;1.30;;
51664;SDS011;37751;52.408;12.536;2023-07-16T11:07:53;5.40;;;1.67;;
51664;SDS011;37751;52.408;12.536;2023-07-16T11:10:24;3.10;;;1.40;;
51664;SDS011;37751;52.408;12.536;2023-07-16T11:13:05;8.27;;;2.08;;
51664;SDS011;37751;52.408;12.536;2023-07-16T11:15:36;3.78;;;1.75;;
51664;SDS011;37751;52.408;12.536;2023-07-16T11:18:10;8.45;;;1.88;;
51664;SDS011;37751;52.408;12.536;2023-07-16T11:20:38;4.07;;;1.60;;
51664;SDS011;37751;52.408;12.536;2023-07-16T11:23:15;4.28;;;1.60;;
51664;SDS011;37751;52.408;12.536;2023-07-16T11:25:46;2.70;;;1.27;;
51664;SDS011;37751;52.408;12.536;2023-07-16T11:28:18;5.25;;;1.48;;
51664;SDS011;37751;52.408;12.536;2023-07-16T11:30:54;7.05;;;2.15;;
51664;SDS011;37751;52.408;12.536;2023-07-16T11:33:50;4.50;;;1.77;;
51664;SDS011;37751;52.408;12.536;2023-07-16T11:36:23;4.82;;;1.50;;
51664;SDS011;37751;52.408;12.536;2023-07-16T11:38:55;2.92;;;1.42;;
51664;SDS011;37751;52.408;12.536;2023-07-16T11:41:23;3.90;;;1.50;;
51664;SDS011;37751;52.408;12.536;2023-07-16T11:43:53;6.10;;;1.83;;
51664;SDS011;37751;52.408;12.536;2023-07-16T11:46:23;6.13;;;1.67;;
51664;SDS011;37751;52.408;12.536;2023-07-16T11:48:52;4.22;;;1.80;;
51664;SDS011;37751;52.408;12.536;2023-07-16T11:51:22;3.05;;;1.48;;
51664;SDS011;37751;52.408;12.536;2023-07-16T11:53:55;5.47;;;1.52;;
51664;SDS011;37751;52.408;12.536;2023-07-16T11:56:24;3.35;;;1.67;;
51664;SDS011;37751;52.408;12.536;2023-07-16T11:58:55;6.43;;;1.65;;
51664;SDS011;37751;52.408;12.536;2023-07-16T12:01:23;4.75;;;2.65;;
51664;SDS011;37751;52.408;12.536;2023-07-16T12:03:51;10.35;;;1.63;;
51664;SDS011;37751;52.408;12.536;2023-07-16T12:06:22;3.92;;;1.48;;
51664;SDS011;37751;52.408;12.536;2023-07-16T12:08:50;4.38;;;1.48;;
51664;SDS011;37751;52.408;12.536;2023-07-16T12:11:18;5.88;;;1.63;;
51664;SDS011;37751;52.408;12.536;2023-07-16T12:13:46;3.63;;;1.55;;
51664;SDS011;37751;52.408;12.536;2023-07-16T12:16:13;5.95;;;1.63;;
51664;SDS011;37751;52.408;12.536;2023-07-16T12:18:52;6.95;;;1.83;;
51664;SDS011;37751;52.408;12.536;2023-07-16T12:21:22;5.18;;;1.67;;
51664;SDS011;37751;52.408;12.536;2023-07-16T12:23:52;3.30;;;1.33;;
51664;SDS011;37751;52.408;12.536;2023-07-16T12:26:20;4.95;;;1.90;;
51664;SDS011;37751;52.408;12.536;2023-07-16T12:28:48;4.68;;;1.50;;
51664;SDS011;37751;52.408;12.536;2023-07-16T12:31:17;5.32;;;2.17;;
51664;SDS011;37751;52.408;12.536;2023-07-16T12:33:47;3.85;;;1.70;;
51664;SDS011;37751;52.408;12.536;2023-07-16T12:36:17;4.20;;;1.90;;
51664;SDS011;37751;52.408;12.536;2023-07-16T12:38:45;6.57;;;1.65;;
51664;SDS011;37751;52.408;12.536;2023-07-16T12:41:13;5.70;;;1.80;;
51664;SDS011;37751;52.408;12.536;2023-07-16T12:43:42;3.35;;;1.63;;
51664;SDS011;37751;52.408;12.536;2023-07-16T12:46:10;5.07;;;1.70;;
51664;SDS011;37751;52.408;12.536;2023-07-16T12:48:38;7.30;;;1.55;;
51664;SDS011;37751;52.408;12.536;2023-07-16T12:51:09;4.35;;;1.35;;
51664;SDS011;37751;52.408;12.536;2023-07-16T12:53:37;7.15;;;1.90;;
51664;SDS011;37751;52.408;12.536;2023-07-16T12:56:05;4.55;;;1.90;;
51664;SDS011;37751;52.408;12.536;2023-07-16T12:58:33;4.25;;;2.17;;
51664;SDS011;37751;52.408;12.536;2023-07-16T13:01:03;2.60;;;1.60;;
51664;SDS011;37751;52.408;12.536;2023-07-16T13:03:35;3.50;;;1.40;;
51664;SDS011;37751;52.408;12.536;2023-07-16T13:06:03;4.30;;;1.98;;
51664;SDS011;37751;52.408;12.536;2023-07-16T13:08:32;3.92;;;1.65;;
51664;SDS011;37751;52.408;12.536;2023-07-16T13:11:00;6.38;;;1.95;;
51664;SDS011;37751;52.408;12.536;2023-07-16T13:13:30;3.67;;;1.60;;
51664;SDS011;37751;52.408;12.536;2023-07-16T13:15:58;3.45;;;1.70;;
51664;SDS011;37751;52.408;12.536;2023-07-16T13:18:26;4.38;;;1.88;;
51664;SDS011;37751;52.408;12.536;2023-07-16T13:20:54;7.35;;;1.67;;
51664;SDS011;37751;52.408;12.536;2023-07-16T13:23:22;5.18;;;1.60;;
51664;SDS011;37751;52.408;12.536;2023-07-16T13:25:53;5.78;;;1.60;;
51664;SDS011;37751;52.408;12.536;2023-07-16T13:28:32;4.65;;;1.50;;
51664;SDS011;37751;52.408;12.536;2023-07-16T13:31:02;4.03;;;1.58;;
51664;SDS011;37751;52.408;12.536;2023-07-16T13:33:30;3.25;;;1.30;;
51664;SDS011;37751;52.408;12.536;2023-07-16T13:36:00;2.40;;;1.50;;
51664;SDS011;37751;52.408;12.536;2023-07-16T13:38:31;7.25;;;1.98;;
51664;SDS011;37751;52.408;12.536;2023-07-16T13:40:59;3.40;;;1.35;;
51664;SDS011;37751;52.408;12.536;2023-07-16T13:43:29;3.67;;;1.75;;
51664;SDS011;37751;52.408;12.536;2023-07-16T13:45:57;4.57;;;1.83;;
51664;SDS011;37751;52.408;12.536;2023-07-16T13:48:25;4.30;;;1.52;;
51664;SDS011;37751;52.408;12.536;2023-07-16T13:50:53;3.80;;;1.50;;
51664;SDS011;37751;52.408;12.536;2023-07-16T13:53:21;5.97;;;1.85;;
51664;SDS011;37751;52.408;12.536;2023-07-16T13:55:51;4.25;;;1.80;;
51664;SDS011;37751;52.408;12.536;2023-07-16T13:58:22;5.22;;;2.10;;
51664;SDS011;37751;52.408;12.536;2023-07-16T14:00:52;5.47;;;1.52;;
51664;SDS011;37751;52.408;12.536;2023-07-16T14:03:22;8.23;;;1.73;;
51664;SDS011;37751;52.408;12.536;2023-07-16T14:05:52;5.10;;;1.85;;
51664;SDS011;37751;52.408;12.536;2023-07-16T14:08:19;4.93;;;1.40;;
51664;SDS011;37751;52.408;12.536;2023-07-16T14:10:48;3.17;;;1.50;;
51664;SDS011;37751;52.408;12.536;2023-07-16T14:13:15;4.70;;;1.83;;
51664;SDS011;37751;52.408;12.536;2023-07-16T14:15:43;4.65;;;1.52;;
51664;SDS011;37751;52.408;12.536;2023-07-16T14:18:12;4.82;;;1.65;;
51664;SDS011;37751;52.408;12.536;2023-07-16T14:20:40;2.13;;;1.58;;
51664;SDS011;37751;52.408;12.536;2023-07-16T14:23:08;2.53;;;1.33;;
51664;SDS011;37751;52.408;12.536;2023-07-16T14:25:35;5.07;;;2.00;;
51664;SDS011;37751;52.408;12.536;2023-07-16T14:28:03;3.63;;;1.77;;
51664;SDS011;37751;52.408;12.536;2023-07-16T14:30:31;7.00;;;2.05;;
51664;SDS011;37751;52.408;12.536;2023-07-16T14:32:59;3.95;;;1.50;;
51664;SDS011;37751;52.408;12.536;2023-07-16T14:35:29;6.85;;;1.73;;
51664;SDS011;37751;52.408;12.536;2023-07-16T14:38:04;3.03;;;1.73;;
51664;SDS011;37751;52.408;12.536;2023-07-16T14:40:34;3.38;;;2.08;;
51664;SDS011;37751;52.408;12.536;2023-07-16T14:43:04;5.60;;;1.60;;
51664;SDS011;37751;52.408;12.536;2023-07-16T14:45:37;2.78;;;1.85;;
51664;SDS011;37751;52.408;12.536;2023-07-16T14:48:06;5.30;;;1.90;;
51664;SDS011;37751;52.408;12.536;2023-07-16T14:50:34;3.30;;;1.58;;
51664;SDS011;37751;52.408;12.536;2023-07-16T14:53:02;8.25;;;1.92;;